sensor_id;sensor_type;location;lat;lon;timestamp;pressure;altitude;pressure_sealevel;temperature;humidity
74631;BME280;63138;55.082;38.804;2023-04-01T00:01:00;98549.16;;;0.24;97.26
74631;BME280;63138;55.082;38.804;2023-04-01T00:03:26;98545.78;;;0.22;96.88
74631;BME280;63138;55.082;38.804;2023-04-01T00:05:58;98545.63;;;0.23;97.17
74631;BME280;63138;55.082;38.804;2023-04-01T00:08:27;98550.97;;;0.23;97.20
74631;BME280;63138;55.082;38.804;2023-04-01T00:11:03;98550.28;;;0.21;97.30
74631;BME280;63138;55.082;38.804;2023-04-01T00:13:31;98545.94;;;0.20;97.22
74631;BME280;63138;55.082;38.804;2023-04-01T00:15:56;98544.25;;;0.19;97.19
74631;BME280;63138;55.082;38.804;2023-04-01T00:18:23;98553.22;;;0.18;97.31
74631;BME280;63138;55.082;38.804;2023-04-01T00:20:51;98550.41;;;0.19;97.19
74631;BME280;63138;55.082;38.804;2023-04-01T00:23:20;98549.44;;;0.21;97.29
74631;BME280;63138;55.082;38.804;2023-04-01T00:25:47;98562.25;;;0.17;97.17
74631;BME280;63138;55.082;38.804;2023-04-01T00:28:18;98553.53;;;0.15;97.20
74631;BME280;63138;55.082;38.804;2023-04-01T00:30:48;98551.72;;;0.15;97.27
74631;BME280;63138;55.082;38.804;2023-04-01T00:33:17;98557.75;;;0.17;97.31
74631;BME280;63138;55.082;38.804;2023-04-01T00:35:44;98558.56;;;0.18;97.05
74631;BME280;63138;55.082;38.804;2023-04-01T00:38:28;98566.44;;;0.19;97.31
74631;BME280;63138;55.082;38.804;2023-04-01T00:40:57;98562.38;;;0.15;97.28
74631;BME280;63138;55.082;38.804;2023-04-01T00:43:24;98561.84;;;0.12;96.97
74631;BME280;63138;55.082;38.804;2023-04-01T00:45:50;98563.22;;;0.16;96.81
74631;BME280;63138;55.082;38.804;2023-04-01T00:48:23;98555.53;;;0.13;97.23
74631;BME280;63138;55.082;38.804;2023-04-01T00:50:55;98557.75;;;0.17;97.16
74631;BME280;63138;55.082;38.804;2023-04-01T00:53:23;98549.72;;;0.17;96.99
74631;BME280;63138;55.082;38.804;2023-04-01T00:55:58;98548.47;;;0.12;96.97
74631;BME280;63138;55.082;38.804;2023-04-01T00:58:27;98554.09;;;0.18;97.16
74631;BME280;63138;55.082;38.804;2023-04-01T01:00:56;98554.94;;;0.19;97.19
74631;BME280;63138;55.082;38.804;2023-04-01T01:03:24;98556.47;;;0.22;97.14
74631;BME280;63138;55.082;38.804;2023-04-01T01:06:11;98548.31;;;0.23;97.09
74631;BME280;63138;55.082;38.804;2023-04-01T01:11:37;98546.50;;;0.24;96.86
74631;BME280;63138;55.082;38.804;2023-04-01T01:14:19;98548.31;;;0.23;97.12
74631;BME280;63138;55.082;38.804;2023-04-01T01:20:24;98552.94;;;0.21;97.51
74631;BME280;63138;55.082;38.804;2023-04-01T01:27:07;98565.34;;;0.22;97.37
74631;BME280;63138;55.082;38.804;2023-04-01T01:32:54;98558.28;;;0.21;97.52
74631;BME280;63138;55.082;38.804;2023-04-01T01:35:48;98563.06;;;0.27;97.31
74631;BME280;63138;55.082;38.804;2023-04-01T01:38:23;98565.88;;;0.26;97.55
74631;BME280;63138;55.082;38.804;2023-04-01T01:41:00;98566.84;;;0.25;97.43
74631;BME280;63138;55.082;38.804;2023-04-01T01:43:36;98562.09;;;0.18;97.72
74631;BME280;63138;55.082;38.804;2023-04-01T01:46:11;98558.28;;;0.21;97.59
74631;BME280;63138;55.082;38.804;2023-04-01T01:48:41;98565.34;;;0.22;97.75
74631;BME280;63138;55.082;38.804;2023-04-01T01:51:08;98568.00;;;0.22;97.74
74631;BME280;63138;55.082;38.804;2023-04-01T01:53:35;98572.19;;;0.25;97.88
74631;BME280;63138;55.082;38.804;2023-04-01T01:56:02;98574.72;;;0.26;97.72
74631;BME280;63138;55.082;38.804;2023-04-01T01:59:01;98559.44;;;0.18;97.61
74631;BME280;63138;55.082;38.804;2023-04-01T02:01:33;98565.19;;;0.24;97.85
74631;BME280;63138;55.082;38.804;2023-04-01T02:04:09;98571.09;;;0.27;97.60
74631;BME280;63138;55.082;38.804;2023-04-01T02:06:39;98567.41;;;0.28;97.50
74631;BME280;63138;55.082;38.804;2023-04-01T02:09:10;98563.75;;;0.29;97.62
74631;BME280;63138;55.082;38.804;2023-04-01T02:11:49;98573.16;;;0.33;97.79
74631;BME280;63138;55.082;38.804;2023-04-01T02:14:20;98567.53;;;0.36;97.46
74631;BME280;63138;55.082;38.804;2023-04-01T02:16:55;98562.88;;;0.38;97.58
74631;BME280;63138;55.082;38.804;2023-04-01T02:19:27;98568.09;;;0.40;97.24
74631;BME280;63138;55.082;38.804;2023-04-01T02:21:59;98575.41;;;0.38;97.54
74631;BME280;63138;55.082;38.804;2023-04-01T02:24:30;98568.78;;;0.32;97.52
74631;BME280;63138;55.082;38.804;2023-04-01T02:27:00;98576.25;;;0.38;97.27
74631;BME280;63138;55.082;38.804;2023-04-01T02:29:27;98573.84;;;0.35;97.13
74631;BME280;63138;55.082;38.804;2023-04-01T02:31:54;98580.16;;;0.44;97.44
74631;BME280;63138;55.082;38.804;2023-04-01T02:34:21;98580.44;;;0.41;97.19
74631;BME280;63138;55.082;38.804;2023-04-01T02:36:49;98583.09;;;0.41;97.27
74631;BME280;63138;55.082;38.804;2023-04-01T02:39:16;98589.47;;;0.40;97.24
74631;BME280;63138;55.082;38.804;2023-04-01T02:41:43;98599.28;;;0.40;97.88
74631;BME280;63138;55.082;38.804;2023-04-01T02:44:12;98574.59;;;0.28;97.27
74631;BME280;63138;55.082;38.804;2023-04-01T02:46:48;98585.69;;;0.33;97.38
74631;BME280;63138;55.082;38.804;2023-04-01T02:49:17;98602.41;;;0.35;97.50
74631;BME280;63138;55.082;38.804;2023-04-01T02:51:50;98601.56;;;0.34;97.66
74631;BME280;63138;55.082;38.804;2023-04-01T02:54:18;98605.06;;;0.35;97.76
74631;BME280;63138;55.082;38.804;2023-04-01T02:56:44;98604.22;;;0.34;97.67
74631;BME280;63138;55.082;38.804;2023-04-01T02:59:11;98611.09;;;0.37;97.42
74631;BME280;63138;55.082;38.804;2023-04-01T03:01:41;98612.25;;;0.34;97.77
74631;BME280;63138;55.082;38.804;2023-04-01T03:04:33;98622.94;;;0.34;97.75
74631;BME280;63138;55.082;38.804;2023-04-01T03:07:00;98609.72;;;0.33;97.96
74631;BME280;63138;55.082;38.804;2023-04-01T03:09:52;98615.59;;;0.36;97.72
74631;BME280;63138;55.082;38.804;2023-04-01T03:13:17;98611.66;;;0.41;97.71
74631;BME280;63138;55.082;38.804;2023-04-01T03:15:47;98614.75;;;0.46;98.09
74631;BME280;63138;55.082;38.804;2023-04-01T03:18:13;98597.59;;;0.38;97.65
74631;BME280;63138;55.082;38.804;2023-04-01T03:20:40;98601.38;;;0.46;97.80
74631;BME280;63138;55.082;38.804;2023-04-01T03:23:07;98602.50;;;0.43;97.94
74631;BME280;63138;55.082;38.804;2023-04-01T03:25:34;98600.69;;;0.44;97.87
74631;BME280;63138;55.082;38.804;2023-04-01T03:28:01;98604.47;;;0.41;97.90
74631;BME280;63138;55.082;38.804;2023-04-01T03:30:33;98621.06;;;0.45;97.85
74631;BME280;63138;55.082;38.804;2023-04-01T03:33:25;98618.53;;;0.43;97.73
74631;BME280;63138;55.082;38.804;2023-04-01T03:35:54;98612.50;;;0.41;97.83
74631;BME280;63138;55.082;38.804;2023-04-01T03:38:23;98626.25;;;0.46;97.71
74631;BME280;63138;55.082;38.804;2023-04-01T03:40:49;98622.06;;;0.44;97.56
74631;BME280;63138;55.082;38.804;2023-04-01T03:43:16;98625.69;;;0.43;97.53
74631;BME280;63138;55.082;38.804;2023-04-01T03:45:50;98630.50;;;0.39;97.85
74631;BME280;63138;55.082;38.804;2023-04-01T03:48:17;98632.75;;;0.44;97.76
74631;BME280;63138;55.082;38.804;2023-04-01T03:51:08;98632.75;;;0.44;98.17
74631;BME280;63138;55.082;38.804;2023-04-01T03:53:34;98638.91;;;0.44;98.27
74631;BME280;63138;55.082;38.804;2023-04-01T03:56:07;98616.16;;;0.30;98.15
74631;BME280;63138;55.082;38.804;2023-04-01T03:58:36;98644.41;;;0.43;98.06
74631;BME280;63138;55.082;38.804;2023-04-01T04:01:18;98642.41;;;0.45;98.24
74631;BME280;63138;55.082;38.804;2023-04-01T04:03:46;98661.97;;;0.45;98.00
74631;BME280;63138;55.082;38.804;2023-04-01T04:06:13;98659.13;;;0.47;97.72
74631;BME280;63138;55.082;38.804;2023-04-01T04:08:40;98652.81;;;0.48;98.12
74631;BME280;63138;55.082;38.804;2023-04-01T04:11:07;98657.88;;;0.51;97.72
74631;BME280;63138;55.082;38.804;2023-04-01T04:13:36;98656.47;;;0.47;97.74
74631;BME280;63138;55.082;38.804;2023-04-01T04:16:04;98663.22;;;0.51;98.02
74631;BME280;63138;55.082;38.804;2023-04-01T04:18:33;98665.59;;;0.54;97.88
74631;BME280;63138;55.082;38.804;2023-04-01T04:21:00;98656.88;;;0.52;97.82
74631;BME280;63138;55.082;38.804;2023-04-01T04:23:28;98675.44;;;0.63;98.12
74631;BME280;63138;55.082;38.804;2023-04-01T04:26:25;98675.69;;;0.70;97.93
74631;BME280;63138;55.082;38.804;2023-04-01T04:28:58;98673.28;;;0.76;97.72
74631;BME280;63138;55.082;38.804;2023-04-01T04:31:27;98676.38;;;0.82;97.65
74631;BME280;63138;55.082;38.804;2023-04-01T04:33:55;98670.19;;;0.81;97.38
74631;BME280;63138;55.082;38.804;2023-04-01T04:36:22;98672.88;;;0.81;97.14
74631;BME280;63138;55.082;38.804;2023-04-01T04:38:50;98673.69;;;0.82;97.19
74631;BME280;63138;55.082;38.804;2023-04-01T04:41:18;98668.34;;;0.82;96.96
74631;BME280;63138;55.082;38.804;2023-04-01T04:43:52;98645.75;;;0.66;97.54
74631;BME280;63138;55.082;38.804;2023-04-01T04:46:19;98675.09;;;0.86;96.91
74631;BME280;63138;55.082;38.804;2023-04-01T04:48:47;98673.09;;;0.88;96.81
74631;BME280;63138;55.082;38.804;2023-04-01T04:51:16;98675.78;;;0.88;96.89
74631;BME280;63138;55.082;38.804;2023-04-01T04:54:08;98679.31;;;0.88;96.92
74631;BME280;63138;55.082;38.804;2023-04-01T04:56:48;98681.53;;;0.93;96.89
74631;BME280;63138;55.082;38.804;2023-04-01T04:59:14;98687.88;;;0.92;96.36
74631;BME280;63138;55.082;38.804;2023-04-01T05:01:47;98693.50;;;0.89;96.52
74631;BME280;63138;55.082;38.804;2023-04-01T05:04:13;98695.91;;;0.92;96.75
74631;BME280;63138;55.082;38.804;2023-04-01T05:06:40;98704.63;;;0.94;96.54
74631;BME280;63138;55.082;38.804;2023-04-01T05:09:08;98693.06;;;0.93;96.74
74631;BME280;63138;55.082;38.804;2023-04-01T05:11:37;98700.91;;;1.05;96.17
74631;BME280;63138;55.082;38.804;2023-04-01T05:14:04;98698.94;;;0.97;95.92
74631;BME280;63138;55.082;38.804;2023-04-01T05:16:31;98703.19;;;1.00;96.00
74631;BME280;63138;55.082;38.804;2023-04-01T05:18:59;98708.81;;;1.06;95.42
74631;BME280;63138;55.082;38.804;2023-04-01T05:21:27;98717.78;;;1.05;95.27
74631;BME280;63138;55.082;38.804;2023-04-01T05:23:55;98714.25;;;1.14;96.47
74631;BME280;63138;55.082;38.804;2023-04-01T05:26:22;98711.00;;;1.21;96.44
74631;BME280;63138;55.082;38.804;2023-04-01T05:28:48;98716.03;;;1.24;95.20
74631;BME280;63138;55.082;38.804;2023-04-01T05:31:15;98716.72;;;1.26;95.28
74631;BME280;63138;55.082;38.804;2023-04-01T05:33:44;98716.44;;;1.29;94.50
74631;BME280;63138;55.082;38.804;2023-04-01T05:36:35;98714.22;;;1.24;94.11
74631;BME280;63138;55.082;38.804;2023-04-01T05:39:01;98729.06;;;1.37;94.31
74631;BME280;63138;55.082;38.804;2023-04-01T05:41:27;98724.66;;;1.45;94.41
74631;BME280;63138;55.082;38.804;2023-04-01T05:44:21;98725.91;;;1.51;93.60
74631;BME280;63138;55.082;38.804;2023-04-01T05:47:17;98715.88;;;1.53;93.39
74631;BME280;63138;55.082;38.804;2023-04-01T05:49:43;98720.13;;;1.56;93.42
74631;BME280;63138;55.082;38.804;2023-04-01T05:52:10;98726.56;;;1.63;92.79
74631;BME280;63138;55.082;38.804;2023-04-01T05:54:36;98718.13;;;1.58;93.10
74631;BME280;63138;55.082;38.804;2023-04-01T05:57:02;98727.69;;;1.60;92.53
74631;BME280;63138;55.082;38.804;2023-04-01T05:59:28;98732.59;;;1.65;92.82
74631;BME280;63138;55.082;38.804;2023-04-01T06:02:02;98734.88;;;1.87;93.19
74631;BME280;63138;55.082;38.804;2023-04-01T06:04:37;98745.25;;;1.90;92.23
74631;BME280;63138;55.082;38.804;2023-04-01T06:07:17;98744.50;;;1.80;91.27
74631;BME280;63138;55.082;38.804;2023-04-01T06:10:16;98746.69;;;1.85;91.17
74631;BME280;63138;55.082;38.804;2023-04-01T06:30:10;98775.09;;;2.23;89.19
74631;BME280;63138;55.082;38.804;2023-04-01T06:51:17;98768.94;;;2.67;88.06
74631;BME280;63138;55.082;38.804;2023-04-01T06:54:15;98775.56;;;2.81;87.23
74631;BME280;63138;55.082;38.804;2023-04-01T06:57:44;98768.06;;;2.66;87.09
74631;BME280;63138;55.082;38.804;2023-04-01T07:00:30;98785.94;;;2.76;86.78
74631;BME280;63138;55.082;38.804;2023-04-01T07:05:35;98790.28;;;2.77;87.45
74631;BME280;63138;55.082;38.804;2023-04-01T07:08:06;98793.44;;;2.90;87.31
74631;BME280;63138;55.082;38.804;2023-04-01T07:10:54;98796.84;;;3.00;86.21
74631;BME280;63138;55.082;38.804;2023-04-01T07:13:49;98754.84;;;2.65;85.41
74631;BME280;63138;55.082;38.804;2023-04-01T07:16:51;98795.41;;;2.88;86.24
74631;BME280;63138;55.082;38.804;2023-04-01T07:19:32;98798.41;;;2.85;86.23
74631;BME280;63138;55.082;38.804;2023-04-01T07:22:27;98799.47;;;2.92;86.39
74631;BME280;63138;55.082;38.804;2023-04-01T07:25:25;98797.78;;;2.91;86.46
74631;BME280;63138;55.082;38.804;2023-04-01T07:28:12;98810.88;;;2.94;86.42
74631;BME280;63138;55.082;38.804;2023-04-01T07:33:38;98816.94;;;2.96;86.28
74631;BME280;63138;55.082;38.804;2023-04-01T07:38:53;98817.31;;;3.01;85.55
74631;BME280;63138;55.082;38.804;2023-04-01T07:41:51;98829.13;;;2.91;85.62
74631;BME280;63138;55.082;38.804;2023-04-01T07:44:28;98829.66;;;2.94;85.95
74631;BME280;63138;55.082;38.804;2023-04-01T07:50:31;98833.72;;;2.98;85.88
74631;BME280;63138;55.082;38.804;2023-04-01T08:03:36;98848.19;;;3.05;85.87
74631;BME280;63138;55.082;38.804;2023-04-01T08:06:37;98851.78;;;2.96;85.42
74631;BME280;63138;55.082;38.804;2023-04-01T08:12:41;98862.81;;;2.93;85.45
74631;BME280;63138;55.082;38.804;2023-04-01T08:21:23;98846.56;;;3.13;83.90
74631;BME280;63138;55.082;38.804;2023-04-01T08:23:58;98869.53;;;3.33;84.18
74631;BME280;63138;55.082;38.804;2023-04-01T08:26:37;98873.69;;;3.54;83.92
74631;BME280;63138;55.082;38.804;2023-04-01T08:29:21;98867.81;;;3.76;83.46
74631;BME280;63138;55.082;38.804;2023-04-01T08:32:22;98884.31;;;3.90;82.80
74631;BME280;63138;55.082;38.804;2023-04-01T08:35:29;98874.63;;;3.97;82.07
74631;BME280;63138;55.082;38.804;2023-04-01T08:38:29;98884.34;;;3.98;81.42
74631;BME280;63138;55.082;38.804;2023-04-01T08:41:14;98876.03;;;3.83;80.31
74631;BME280;63138;55.082;38.804;2023-04-01T08:54:00;98894.19;;;3.55;82.49
74631;BME280;63138;55.082;38.804;2023-04-01T08:58:55;98900.66;;;3.70;82.08
74631;BME280;63138;55.082;38.804;2023-04-01T09:10:11;98912.56;;;3.68;81.70
74631;BME280;63138;55.082;38.804;2023-04-01T09:12:52;98915.91;;;3.70;81.78
74631;BME280;63138;55.082;38.804;2023-04-01T09:41:30;98924.09;;;4.71;78.32
74631;BME280;63138;55.082;38.804;2023-04-01T09:44:34;98933.03;;;4.80;77.59
74631;BME280;63138;55.082;38.804;2023-04-01T09:50:20;98930.03;;;4.83;78.58
74631;BME280;63138;55.082;38.804;2023-04-01T09:53:28;98940.50;;;5.11;77.99
74631;BME280;63138;55.082;38.804;2023-04-01T10:14:14;98950.09;;;5.96;73.19
74631;BME280;63138;55.082;38.804;2023-04-01T10:26:08;98961.94;;;6.50;69.49
74631;BME280;63138;55.082;38.804;2023-04-01T10:40:57;98970.75;;;6.76;67.30
74631;BME280;63138;55.082;38.804;2023-04-01T11:26:50;98985.97;;;7.54;62.55
74631;BME280;63138;55.082;38.804;2023-04-01T11:30:03;98991.38;;;7.31;63.46
74631;BME280;63138;55.082;38.804;2023-04-01T11:32:52;98998.84;;;7.21;63.48
74631;BME280;63138;55.082;38.804;2023-04-01T11:35:30;98997.53;;;7.40;64.03
74631;BME280;63138;55.082;38.804;2023-04-01T11:46:48;98957.09;;;7.93;59.61
74631;BME280;63138;55.082;38.804;2023-04-01T11:58:28;98980.16;;;8.33;59.05
74631;BME280;63138;55.082;38.804;2023-04-01T12:04:12;98981.81;;;8.04;60.66
74631;BME280;63138;55.082;38.804;2023-04-01T12:10:18;99000.25;;;7.86;60.69
74631;BME280;63138;55.082;38.804;2023-04-01T12:15:35;98982.00;;;7.65;62.10
74631;BME280;63138;55.082;38.804;2023-04-01T12:18:17;98983.09;;;7.56;62.52
74631;BME280;63138;55.082;38.804;2023-04-01T12:29:37;98992.13;;;7.40;63.83
74631;BME280;63138;55.082;38.804;2023-04-01T12:32:15;98991.56;;;7.30;64.77
74631;BME280;63138;55.082;38.804;2023-04-01T12:43:11;98998.47;;;7.01;65.25
74631;BME280;63138;55.082;38.804;2023-04-01T12:45:54;99006.91;;;6.98;67.06
74631;BME280;63138;55.082;38.804;2023-04-01T12:52:10;99012.47;;;6.96;67.52
74631;BME280;63138;55.082;38.804;2023-04-01T12:54:56;99014.53;;;6.94;68.36
74631;BME280;63138;55.082;38.804;2023-04-01T13:09:29;99013.38;;;6.80;69.91
74631;BME280;63138;55.082;38.804;2023-04-01T13:18:03;99023.50;;;6.86;69.66
74631;BME280;63138;55.082;38.804;2023-04-01T13:21:03;99015.03;;;6.89;69.76
74631;BME280;63138;55.082;38.804;2023-04-01T13:26:27;99013.72;;;6.85;70.18
74631;BME280;63138;55.082;38.804;2023-04-01T13:28:59;99023.69;;;6.85;69.98
74631;BME280;63138;55.082;38.804;2023-04-01T13:32:06;99026.22;;;6.78;70.92
74631;BME280;63138;55.082;38.804;2023-04-01T13:38:00;99026.28;;;6.70;71.15
74631;BME280;63138;55.082;38.804;2023-04-01T13:40:49;99038.88;;;6.78;70.99
74631;BME280;63138;55.082;38.804;2023-04-01T13:43:45;99044.63;;;6.75;70.92
74631;BME280;63138;55.082;38.804;2023-04-01T13:55:06;99051.88;;;6.66;72.28
74631;BME280;63138;55.082;38.804;2023-04-01T14:05:52;99063.38;;;6.60;73.21
74631;BME280;63138;55.082;38.804;2023-04-01T14:12:19;99065.75;;;6.55;73.49
74631;BME280;63138;55.082;38.804;2023-04-01T14:14:30;99075.88;;;6.53;74.02
74631;BME280;63138;55.082;38.804;2023-04-01T14:20:26;99054.50;;;6.43;74.58
74631;BME280;63138;55.082;38.804;2023-04-01T14:32:52;99093.25;;;6.34;75.01
74631;BME280;63138;55.082;38.804;2023-04-01T14:38:14;99106.22;;;6.30;76.04
74631;BME280;63138;55.082;38.804;2023-04-01T14:40:45;99101.72;;;6.30;76.40
74631;BME280;63138;55.082;38.804;2023-04-01T14:48:56;99116.34;;;6.28;76.30
74631;BME280;63138;55.082;38.804;2023-04-01T14:51:35;99115.69;;;6.26;76.54
74631;BME280;63138;55.082;38.804;2023-04-01T14:54:32;99117.53;;;6.25;77.19
74631;BME280;63138;55.082;38.804;2023-04-01T14:57:11;99123.78;;;6.26;77.05
74631;BME280;63138;55.082;38.804;2023-04-01T14:59:48;99115.19;;;6.22;77.12
74631;BME280;63138;55.082;38.804;2023-04-01T15:05:47;99125.63;;;6.17;76.99
74631;BME280;63138;55.082;38.804;2023-04-01T15:12:04;99107.44;;;6.11;77.72
74631;BME280;63138;55.082;38.804;2023-04-01T15:14:57;99127.47;;;6.08;77.97
74631;BME280;63138;55.082;38.804;2023-04-01T15:18:07;99126.78;;;6.06;78.21
74631;BME280;63138;55.082;38.804;2023-04-01T15:24:21;99140.44;;;6.05;78.56
74631;BME280;63138;55.082;38.804;2023-04-01T15:35:46;99155.03;;;5.94;79.33
74631;BME280;63138;55.082;38.804;2023-04-01T15:46:57;99151.00;;;5.82;80.80
74631;BME280;63138;55.082;38.804;2023-04-01T15:52:24;99165.13;;;5.67;82.04
74631;BME280;63138;55.082;38.804;2023-04-01T16:00:55;99150.25;;;5.55;82.88
74631;BME280;63138;55.082;38.804;2023-04-01T16:03:39;99181.03;;;5.52;83.08
74631;BME280;63138;55.082;38.804;2023-04-01T16:25:39;99202.03;;;5.41;84.29
74631;BME280;63138;55.082;38.804;2023-04-01T16:31:46;99199.00;;;5.35;84.58
74631;BME280;63138;55.082;38.804;2023-04-01T16:48:00;99218.13;;;5.24;86.34
74631;BME280;63138;55.082;38.804;2023-04-01T16:51:02;99222.81;;;5.22;86.67
74631;BME280;63138;55.082;38.804;2023-04-01T16:53:45;99231.22;;;5.19;86.54
74631;BME280;63138;55.082;38.804;2023-04-01T16:56:23;99226.13;;;5.16;87.78
74631;BME280;63138;55.082;38.804;2023-04-01T16:59:24;99242.94;;;5.10;88.29
74631;BME280;63138;55.082;38.804;2023-04-01T17:05:06;99241.53;;;5.06;88.93
74631;BME280;63138;55.082;38.804;2023-04-01T17:18:59;99249.88;;;4.94;89.98
74631;BME280;63138;55.082;38.804;2023-04-01T17:25:04;99264.34;;;4.93;90.47
74631;BME280;63138;55.082;38.804;2023-04-01T17:28:06;99266.50;;;4.90;90.86
74631;BME280;63138;55.082;38.804;2023-04-01T17:42:34;99264.59;;;4.82;91.46
74631;BME280;63138;55.082;38.804;2023-04-01T17:45:45;99270.97;;;4.81;92.11
74631;BME280;63138;55.082;38.804;2023-04-01T17:51:32;99265.59;;;4.81;91.98
74631;BME280;63138;55.082;38.804;2023-04-01T17:54:30;99262.91;;;4.81;92.21
74631;BME280;63138;55.082;38.804;2023-04-01T18:06:16;99280.53;;;4.75;92.94
74631;BME280;63138;55.082;38.804;2023-04-01T18:14:36;99279.34;;;4.78;92.46
74631;BME280;63138;55.082;38.804;2023-04-01T18:20:08;99301.25;;;4.83;92.72
74631;BME280;63138;55.082;38.804;2023-04-01T18:22:47;99296.47;;;4.77;92.97
74631;BME280;63138;55.082;38.804;2023-04-01T18:25:35;99300.56;;;4.81;92.91
74631;BME280;63138;55.082;38.804;2023-04-01T18:31:20;99308.94;;;4.78;93.60
74631;BME280;63138;55.082;38.804;2023-04-01T18:34:41;99316.03;;;4.79;93.15
74631;BME280;63138;55.082;38.804;2023-04-01T18:43:38;99308.94;;;4.78;93.44
74631;BME280;63138;55.082;38.804;2023-04-01T18:53:56;99306.25;;;4.78;93.87
74631;BME280;63138;55.082;38.804;2023-04-01T18:56:35;99302.56;;;4.79;93.46
74631;BME280;63138;55.082;38.804;2023-04-01T19:04:14;99305.28;;;4.79;93.79
74631;BME280;63138;55.082;38.804;2023-04-01T19:06:55;99314.19;;;4.79;93.98
74631;BME280;63138;55.082;38.804;2023-04-01T19:09:31;99301.31;;;4.73;94.12
74631;BME280;63138;55.082;38.804;2023-04-01T19:20:38;99328.47;;;4.80;94.56
74631;BME280;63138;55.082;38.804;2023-04-01T19:32:22;99322.41;;;4.78;94.34
74631;BME280;63138;55.082;38.804;2023-04-01T19:34:59;99320.38;;;4.80;94.38
74631;BME280;63138;55.082;38.804;2023-04-01T19:38:19;99325.78;;;4.80;94.31
74631;BME280;63138;55.082;38.804;2023-04-01T19:53:11;99320.69;;;4.77;94.00
74631;BME280;63138;55.082;38.804;2023-04-01T19:56:14;99325.09;;;4.78;94.08
74631;BME280;63138;55.082;38.804;2023-04-01T20:01:28;99325.09;;;4.78;94.29
74631;BME280;63138;55.082;38.804;2023-04-01T20:04:06;99319.72;;;4.78;94.02
74631;BME280;63138;55.082;38.804;2023-04-01T20:15:37;99332.31;;;4.77;94.27
74631;BME280;63138;55.082;38.804;2023-04-01T20:21:24;99346.44;;;4.79;94.00
74631;BME280;63138;55.082;38.804;2023-04-01T20:24:31;99356.59;;;4.86;94.36
74631;BME280;63138;55.082;38.804;2023-04-01T20:27:04;99351.34;;;4.84;94.31
74631;BME280;63138;55.082;38.804;2023-04-01T20:37:57;99368.22;;;4.86;94.07
74631;BME280;63138;55.082;38.804;2023-04-01T20:40:39;99369.75;;;4.89;94.14
74631;BME280;63138;55.082;38.804;2023-04-01T20:46:20;99373.13;;;4.91;94.13
74631;BME280;63138;55.082;38.804;2023-04-01T20:52:22;99371.13;;;4.93;94.14
74631;BME280;63138;55.082;38.804;2023-04-01T21:00:16;99371.13;;;4.93;94.21
74631;BME280;63138;55.082;38.804;2023-04-01T21:05:57;99373.81;;;4.93;94.51
74631;BME280;63138;55.082;38.804;2023-04-01T21:08:57;99394.34;;;4.94;94.02
74631;BME280;63138;55.082;38.804;2023-04-01T21:14:39;99383.44;;;4.95;94.32
74631;BME280;63138;55.082;38.804;2023-04-01T21:17:36;99394.34;;;4.94;94.55
74631;BME280;63138;55.082;38.804;2023-04-01T21:28:20;99396.19;;;4.93;94.18
74631;BME280;63138;55.082;38.804;2023-04-01T21:36:43;99405.94;;;4.94;94.45
74631;BME280;63138;55.082;38.804;2023-04-01T21:51:52;99408.47;;;4.96;94.67
74631;BME280;63138;55.082;38.804;2023-04-01T22:07:23;99416.41;;;4.97;95.16
74631;BME280;63138;55.082;38.804;2023-04-01T22:10:04;99427.16;;;4.97;95.06
74631;BME280;63138;55.082;38.804;2023-04-01T22:15:40;99422.31;;;5.01;94.72
74631;BME280;63138;55.082;38.804;2023-04-01T22:18:20;99417.09;;;5.00;94.88
74631;BME280;63138;55.082;38.804;2023-04-01T22:24:04;99424.00;;;5.02;94.86
74631;BME280;63138;55.082;38.804;2023-04-01T22:30:15;99432.25;;;5.01;94.48
74631;BME280;63138;55.082;38.804;2023-04-01T22:32:46;99436.75;;;5.00;94.80
74631;BME280;63138;55.082;38.804;2023-04-01T22:56:48;99445.38;;;5.04;94.76
74631;BME280;63138;55.082;38.804;2023-04-01T22:59:22;99438.47;;;5.01;95.09
74631;BME280;63138;55.082;38.804;2023-04-01T23:01:55;99437.31;;;5.04;94.69
74631;BME280;63138;55.082;38.804;2023-04-01T23:04:32;99437.84;;;5.07;94.46
74631;BME280;63138;55.082;38.804;2023-04-01T23:07:02;99440.53;;;5.07;94.66
74631;BME280;63138;55.082;38.804;2023-04-01T23:09:37;99439.69;;;5.07;94.66
74631;BME280;63138;55.082;38.804;2023-04-01T23:12:08;99434.16;;;5.08;94.56
74631;BME280;63138;55.082;38.804;2023-04-01T23:20:48;99454.31;;;5.04;94.60
74631;BME280;63138;55.082;38.804;2023-04-01T23:25:39;99456.47;;;5.01;94.57
74631;BME280;63138;55.082;38.804;2023-04-01T23:33:20;99443.47;;;4.96;94.80
74631;BME280;63138;55.082;38.804;2023-04-01T23:36:11;99446.69;;;5.00;94.27
74631;BME280;63138;55.082;38.804;2023-04-01T23:38:42;99459.16;;;5.01;94.67
74631;BME280;63138;55.082;38.804;2023-04-01T23:41:24;99456.47;;;5.01;94.26
74631;BME280;63138;55.082;38.804;2023-04-01T23:46:29;99469.59;;;5.04;94.25
74631;BME280;63138;55.082;38.804;2023-04-01T23:48:56;99455.75;;;4.98;94.62
74631;BME280;63138;55.082;38.804;2023-04-01T23:51:26;99465.09;;;5.04;93.98
74631;BME280;63138;55.082;38.804;2023-04-01T23:54:01;99462.53;;;5.03;93.92
74631;BME280;63138;55.082;38.804;2023-04-01T23:56:41;99476.69;;;5.05;94.14
74631;BME280;63138;55.082;38.804;2023-04-01T23:59:35;99467.78;;;5.04;94.14
